Share

Livingston, KY (40445)

Napier Mountain (KKYLONDO4) Elev 1312 ft | 37.15 °N, 84.12 °W | Change Station

Current weather conditions updated 4 seconds ago

Clear
Clear
54.0 °F
Feels Like 54.0 °F
N
5.4
Wind Variable Wind from NE
Gusts 9.2 mph
Sunrise 6:56 AM
Sunset 8:15 PM
Moon Waning Gibbous

Today is forecast to be Warmer than yesterday.

Pressure 30.15 in
Visibility 10.0 miles
Clouds Clear
Dew Point 38 °F
Humidity 55%
Rainfall 0.00 in
Snow Depth Not available.
UV 0 out of 16
Pollen 9.90 out of 12
Air Quality Not available.
Flu Activity Sporadic
METAR KLOZ 190753Z AUTO 02006KT 10SM CLR 12/03 A3016 RMK AO2 SLP208 T01220033

More Conditions Fewer Conditions

Pressure 30.15 in
Visibility 10.0 miles
Clouds Clear
Dew Point 38 °F
Humidity 55%
Rainfall 0.00 in
Snow Depth Not available.
UV 0 out of 16
Pollen 9.90 out of 12
Air Quality Not available.
Flu Activity Sporadic
METAR KLOZ 190753Z AUTO 02006KT 10SM CLR 12/03 A3016 RMK AO2 SLP208 T01220033

More Conditions Fewer Conditions

10-Day Weather Forecast

Almanac

Astronomy

Apr. 19, 2014 Rise Set
Actual Time 6:56 AM EDT 8:15 PM EDT
Civil Twilight 6:29 AM EDT 8:42 PM EDT
Nautical Twilight 5:57 AM EDT 9:15 PM EDT
Astronomical Twilight 5:23 AM EDT 9:49 PM EDT
Moon No Moon Rise 10:17 AM EDT
Length of Visible Light 14h 13m
Length of Day
13h 18m
Tomorrow will be 2m 13s longer.
Waning Gibbous, 81% of the Moon is Illuminated
Today
Waning Gibbous
Apr 22
Last Quarter
Apr 29
New
May 6
First Quarter
May 14
Full

Today's Extremes

State Highs State Lows

Community

  • Sunset Silhouettes
    Sunset Silhouettes
  • FL sunset Perico Isle
    FL sunset Perico Isle
  • Cloudy spring view
    Cloudy spring view
  • Old barn
    Old barn
  • What's for Lunch?
    What's for Lunch?

WunderPhotos

Upload Photos

1,702,668 photos uploaded!

WunderBlogs® & News

Nearby

Snow Depth

Station Depth Elevation
No new snow has been reported.

Coastal Water Temperatures

Place Temperature
No Stations Reporting

Earthquake Activity

City Distance Mag. Time & Date
Englewood, Tennessee 128 miles 2.8 10:34 PM EDT
2014-04-12
Minimum magnitude displayed is 2.5.

Nearby Weather Stations

Station Location Temp. Windchill Dew Point Humidity Wind Precip. Elev Updated Type
Napier Mountain, London, KY 54.0 °F - 38 °F 55% NE  at  5.4 mph 0.00 in / hr 1312 ft 5:16 AM EDT Rapid Fire
MSWO, London, KY 47.8 °F 48 °F 39 °F 72% NNE  at  2.5 mph 0.00 in / hr 1163 ft 5:17 AM EDT Rapid Fire
K. Bracketts Weather Station 39 N, Crab Orchard, KY 45.5 °F 46 °F 45 °F 99% North  at  0.7 mph 0.00 in / hr 952 ft 5:17 AM EDT Rapid Fire
HALLS BACKYARD WEATHER, SCIENCE HILL, KY 51.6 °F - 37 °F 58% West  at  0.0 mph 0.00 in / hr 1076 ft 5:16 AM EDT Normal

Show More Stations Show Fewer Stations

What do you think?

We're not finished. Please let us know what you like, what you don't like, and what you are still missing.